sensor_id;sensor_type;location;lat;lon;timestamp;P1;durP1;ratioP1;P2;durP2;ratioP2
70549;SDS011;58101;48.658;2.328;2023-10-19T00:00:35;13.05;;;1.98;;
70549;SDS011;58101;48.658;2.328;2023-10-19T00:03:04;10.55;;;1.90;;
70549;SDS011;58101;48.658;2.328;2023-10-19T00:05:31;10.45;;;1.42;;
70549;SDS011;58101;48.658;2.328;2023-10-19T00:08:01;11.55;;;1.42;;
70549;SDS011;58101;48.658;2.328;2023-10-19T00:10:47;11.15;;;1.63;;
70549;SDS011;58101;48.658;2.328;2023-10-19T00:13:20;12.55;;;1.73;;
70549;SDS011;58101;48.658;2.328;2023-10-19T00:15:47;10.50;;;1.70;;
70549;SDS011;58101;48.658;2.328;2023-10-19T00:18:15;12.18;;;1.90;;
70549;SDS011;58101;48.658;2.328;2023-10-19T00:20:41;7.40;;;1.42;;
70549;SDS011;58101;48.658;2.328;2023-10-19T00:23:10;14.18;;;2.00;;
70549;SDS011;58101;48.658;2.328;2023-10-19T00:25:38;10.82;;;1.50;;
70549;SDS011;58101;48.658;2.328;2023-10-19T00:28:06;14.98;;;1.80;;
70549;SDS011;58101;48.658;2.328;2023-10-19T00:30:33;15.77;;;1.90;;
70549;SDS011;58101;48.658;2.328;2023-10-19T00:33:03;15.15;;;2.30;;
70549;SDS011;58101;48.658;2.328;2023-10-19T00:35:30;11.63;;;1.90;;
70549;SDS011;58101;48.658;2.328;2023-10-19T00:38:08;12.80;;;2.00;;
70549;SDS011;58101;48.658;2.328;2023-10-19T00:40:52;13.65;;;1.60;;
70549;SDS011;58101;48.658;2.328;2023-10-19T00:43:28;15.57;;;2.10;;
70549;SDS011;58101;48.658;2.328;2023-10-19T00:45:58;12.02;;;1.90;;
70549;SDS011;58101;48.658;2.328;2023-10-19T00:48:26;15.07;;;2.13;;
70549;SDS011;58101;48.658;2.328;2023-10-19T00:50:53;14.13;;;1.40;;
70549;SDS011;58101;48.658;2.328;2023-10-19T00:53:32;12.68;;;1.70;;
70549;SDS011;58101;48.658;2.328;2023-10-19T00:56:03;12.77;;;1.80;;
70549;SDS011;58101;48.658;2.328;2023-10-19T00:58:32;11.63;;;1.88;;
70549;SDS011;58101;48.658;2.328;2023-10-19T01:01:01;13.73;;;2.15;;
70549;SDS011;58101;48.658;2.328;2023-10-19T01:03:33;12.50;;;2.20;;
70549;SDS011;58101;48.658;2.328;2023-10-19T01:06:05;15.38;;;1.83;;
70549;SDS011;58101;48.658;2.328;2023-10-19T01:08:35;15.60;;;1.98;;
70549;SDS011;58101;48.658;2.328;2023-10-19T01:11:07;10.98;;;1.60;;
70549;SDS011;58101;48.658;2.328;2023-10-19T01:13:39;16.15;;;2.25;;
70549;SDS011;58101;48.658;2.328;2023-10-19T01:16:12;12.45;;;1.80;;
70549;SDS011;58101;48.658;2.328;2023-10-19T01:18:51;13.75;;;1.67;;
70549;SDS011;58101;48.658;2.328;2023-10-19T01:21:23;15.07;;;1.65;;
70549;SDS011;58101;48.658;2.328;2023-10-19T01:24:05;13.25;;;2.05;;
70549;SDS011;58101;48.658;2.328;2023-10-19T01:26:32;11.38;;;2.35;;
70549;SDS011;58101;48.658;2.328;2023-10-19T01:29:02;12.88;;;1.50;;
70549;SDS011;58101;48.658;2.328;2023-10-19T01:31:38;19.13;;;2.13;;
70549;SDS011;58101;48.658;2.328;2023-10-19T01:34:16;18.00;;;1.95;;
70549;SDS011;58101;48.658;2.328;2023-10-19T01:36:45;10.63;;;1.38;;
70549;SDS011;58101;48.658;2.328;2023-10-19T01:39:15;11.15;;;1.60;;
70549;SDS011;58101;48.658;2.328;2023-10-19T01:41:43;11.25;;;1.50;;
70549;SDS011;58101;48.658;2.328;2023-10-19T01:44:09;10.68;;;1.90;;
70549;SDS011;58101;48.658;2.328;2023-10-19T01:46:38;11.90;;;1.67;;
70549;SDS011;58101;48.658;2.328;2023-10-19T01:49:04;10.13;;;1.60;;
70549;SDS011;58101;48.658;2.328;2023-10-19T01:51:31;12.02;;;1.63;;
70549;SDS011;58101;48.658;2.328;2023-10-19T01:53:58;15.20;;;1.95;;
70549;SDS011;58101;48.658;2.328;2023-10-19T01:56:26;14.75;;;1.75;;
70549;SDS011;58101;48.658;2.328;2023-10-19T01:58:52;13.13;;;1.92;;
70549;SDS011;58101;48.658;2.328;2023-10-19T02:01:19;12.90;;;1.70;;
70549;SDS011;58101;48.658;2.328;2023-10-19T02:06:19;15.88;;;1.85;;
70549;SDS011;58101;48.658;2.328;2023-10-19T02:08:49;17.33;;;2.10;;
70549;SDS011;58101;48.658;2.328;2023-10-19T02:11:23;15.20;;;1.80;;
70549;SDS011;58101;48.658;2.328;2023-10-19T02:13:50;13.00;;;1.77;;
70549;SDS011;58101;48.658;2.328;2023-10-19T02:16:17;13.65;;;1.92;;
70549;SDS011;58101;48.658;2.328;2023-10-19T02:18:58;13.55;;;2.00;;
70549;SDS011;58101;48.658;2.328;2023-10-19T02:21:23;16.25;;;1.80;;
70549;SDS011;58101;48.658;2.328;2023-10-19T02:23:56;15.50;;;1.80;;
70549;SDS011;58101;48.658;2.328;2023-10-19T02:26:22;13.05;;;2.00;;
70549;SDS011;58101;48.658;2.328;2023-10-19T02:28:51;13.73;;;2.10;;
70549;SDS011;58101;48.658;2.328;2023-10-19T02:31:17;14.90;;;1.80;;
70549;SDS011;58101;48.658;2.328;2023-10-19T02:33:45;12.98;;;2.22;;
70549;SDS011;58101;48.658;2.328;2023-10-19T02:36:14;14.90;;;2.00;;
70549;SDS011;58101;48.658;2.328;2023-10-19T02:38:41;13.65;;;1.80;;
70549;SDS011;58101;48.658;2.328;2023-10-19T02:41:13;11.88;;;1.80;;
70549;SDS011;58101;48.658;2.328;2023-10-19T02:43:48;16.75;;;1.83;;
70549;SDS011;58101;48.658;2.328;2023-10-19T02:46:26;13.32;;;2.13;;
70549;SDS011;58101;48.658;2.328;2023-10-19T02:48:59;17.00;;;1.95;;
70549;SDS011;58101;48.658;2.328;2023-10-19T02:51:25;14.88;;;1.90;;
70549;SDS011;58101;48.658;2.328;2023-10-19T02:53:51;15.55;;;2.00;;
70549;SDS011;58101;48.658;2.328;2023-10-19T02:56:17;14.32;;;2.33;;
70549;SDS011;58101;48.658;2.328;2023-10-19T02:58:44;17.33;;;2.38;;
70549;SDS011;58101;48.658;2.328;2023-10-19T03:01:17;12.63;;;1.75;;
70549;SDS011;58101;48.658;2.328;2023-10-19T03:03:56;16.50;;;2.42;;
70549;SDS011;58101;48.658;2.328;2023-10-19T03:06:25;11.55;;;1.85;;
70549;SDS011;58101;48.658;2.328;2023-10-19T03:08:56;22.35;;;2.22;;
70549;SDS011;58101;48.658;2.328;2023-10-19T03:11:47;13.95;;;1.75;;
70549;SDS011;58101;48.658;2.328;2023-10-19T03:14:17;15.45;;;2.15;;
70549;SDS011;58101;48.658;2.328;2023-10-19T03:16:43;14.57;;;2.15;;
70549;SDS011;58101;48.658;2.328;2023-10-19T03:21:38;17.17;;;2.13;;
70549;SDS011;58101;48.658;2.328;2023-10-19T03:24:13;11.73;;;2.25;;
70549;SDS011;58101;48.658;2.328;2023-10-19T03:27:04;16.08;;;2.47;;
70549;SDS011;58101;48.658;2.328;2023-10-19T03:29:49;12.82;;;1.92;;
70549;SDS011;58101;48.658;2.328;2023-10-19T03:32:20;19.15;;;2.80;;
70549;SDS011;58101;48.658;2.328;2023-10-19T03:34:54;21.58;;;2.03;;
70549;SDS011;58101;48.658;2.328;2023-10-19T03:37:25;16.60;;;2.00;;
70549;SDS011;58101;48.658;2.328;2023-10-19T03:39:54;13.77;;;1.70;;
70549;SDS011;58101;48.658;2.328;2023-10-19T03:42:23;12.52;;;2.05;;
70549;SDS011;58101;48.658;2.328;2023-10-19T03:44:51;18.90;;;2.10;;
70549;SDS011;58101;48.658;2.328;2023-10-19T03:47:22;12.98;;;1.60;;
70549;SDS011;58101;48.658;2.328;2023-10-19T03:49:51;14.38;;;1.98;;
70549;SDS011;58101;48.658;2.328;2023-10-19T03:52:18;9.85;;;1.40;;
70549;SDS011;58101;48.658;2.328;2023-10-19T03:54:43;11.18;;;1.63;;
70549;SDS011;58101;48.658;2.328;2023-10-19T03:57:10;13.57;;;1.92;;
70549;SDS011;58101;48.658;2.328;2023-10-19T03:59:40;13.80;;;1.80;;
70549;SDS011;58101;48.658;2.328;2023-10-19T04:02:07;10.52;;;1.75;;
70549;SDS011;58101;48.658;2.328;2023-10-19T04:04:41;14.50;;;1.80;;
70549;SDS011;58101;48.658;2.328;2023-10-19T04:07:12;12.02;;;1.75;;
70549;SDS011;58101;48.658;2.328;2023-10-19T04:09:56;18.17;;;1.75;;
70549;SDS011;58101;48.658;2.328;2023-10-19T04:12:31;14.55;;;2.00;;
70549;SDS011;58101;48.658;2.328;2023-10-19T04:14:58;15.73;;;1.85;;
70549;SDS011;58101;48.658;2.328;2023-10-19T04:17:35;14.15;;;1.85;;
70549;SDS011;58101;48.658;2.328;2023-10-19T04:20:04;14.98;;;2.10;;
70549;SDS011;58101;48.658;2.328;2023-10-19T04:22:42;14.63;;;1.80;;
70549;SDS011;58101;48.658;2.328;2023-10-19T04:25:15;12.98;;;2.42;;
70549;SDS011;58101;48.658;2.328;2023-10-19T04:27:44;11.63;;;2.05;;
70549;SDS011;58101;48.658;2.328;2023-10-19T04:30:11;14.40;;;2.10;;
70549;SDS011;58101;48.658;2.328;2023-10-19T04:32:44;14.63;;;1.50;;
70549;SDS011;58101;48.658;2.328;2023-10-19T04:35:11;20.55;;;2.13;;
70549;SDS011;58101;48.658;2.328;2023-10-19T04:37:46;14.95;;;2.00;;
70549;SDS011;58101;48.658;2.328;2023-10-19T04:40:12;16.65;;;2.00;;
70549;SDS011;58101;48.658;2.328;2023-10-19T04:42:38;14.98;;;1.90;;
70549;SDS011;58101;48.658;2.328;2023-10-19T04:45:04;14.98;;;1.73;;
70549;SDS011;58101;48.658;2.328;2023-10-19T04:47:31;13.10;;;1.88;;
70549;SDS011;58101;48.658;2.328;2023-10-19T04:50:04;14.43;;;1.75;;
70549;SDS011;58101;48.658;2.328;2023-10-19T04:52:31;17.33;;;1.73;;
70549;SDS011;58101;48.658;2.328;2023-10-19T04:54:57;18.83;;;1.88;;
70549;SDS011;58101;48.658;2.328;2023-10-19T04:57:23;11.43;;;1.38;;
70549;SDS011;58101;48.658;2.328;2023-10-19T04:59:51;13.07;;;1.83;;
70549;SDS011;58101;48.658;2.328;2023-10-19T05:02:16;11.90;;;2.08;;
70549;SDS011;58101;48.658;2.328;2023-10-19T05:04:42;7.85;;;1.50;;
70549;SDS011;58101;48.658;2.328;2023-10-19T05:07:09;9.95;;;1.65;;
70549;SDS011;58101;48.658;2.328;2023-10-19T05:09:37;12.90;;;1.80;;
70549;SDS011;58101;48.658;2.328;2023-10-19T05:12:04;12.40;;;1.60;;
70549;SDS011;58101;48.658;2.328;2023-10-19T05:14:34;9.70;;;1.48;;
70549;SDS011;58101;48.658;2.328;2023-10-19T05:17:03;10.82;;;1.63;;
70549;SDS011;58101;48.658;2.328;2023-10-19T05:19:30;17.10;;;1.98;;
70549;SDS011;58101;48.658;2.328;2023-10-19T05:22:00;11.52;;;1.60;;
70549;SDS011;58101;48.658;2.328;2023-10-19T05:24:28;10.35;;;2.00;;
70549;SDS011;58101;48.658;2.328;2023-10-19T05:26:55;9.18;;;1.83;;
70549;SDS011;58101;48.658;2.328;2023-10-19T05:29:21;10.77;;;1.67;;
70549;SDS011;58101;48.658;2.328;2023-10-19T05:31:47;14.32;;;1.77;;
70549;SDS011;58101;48.658;2.328;2023-10-19T05:34:18;10.60;;;1.45;;
70549;SDS011;58101;48.658;2.328;2023-10-19T05:36:47;13.48;;;2.03;;
70549;SDS011;58101;48.658;2.328;2023-10-19T05:39:14;15.45;;;1.77;;
70549;SDS011;58101;48.658;2.328;2023-10-19T05:41:43;9.02;;;1.40;;
70549;SDS011;58101;48.658;2.328;2023-10-19T05:44:08;10.98;;;1.88;;
70549;SDS011;58101;48.658;2.328;2023-10-19T05:46:34;11.23;;;1.50;;
70549;SDS011;58101;48.658;2.328;2023-10-19T05:49:00;11.63;;;1.90;;
70549;SDS011;58101;48.658;2.328;2023-10-19T05:51:28;14.27;;;1.70;;
70549;SDS011;58101;48.658;2.328;2023-10-19T05:53:55;9.55;;;1.40;;
70549;SDS011;58101;48.658;2.328;2023-10-19T05:56:27;11.55;;;1.95;;
70549;SDS011;58101;48.658;2.328;2023-10-19T05:58:53;7.50;;;1.60;;
70549;SDS011;58101;48.658;2.328;2023-10-19T06:01:19;10.85;;;1.70;;
70549;SDS011;58101;48.658;2.328;2023-10-19T06:03:45;9.52;;;1.77;;
70549;SDS011;58101;48.658;2.328;2023-10-19T06:06:11;11.52;;;1.92;;
70549;SDS011;58101;48.658;2.328;2023-10-19T06:08:36;9.40;;;1.63;;
70549;SDS011;58101;48.658;2.328;2023-10-19T06:11:02;12.73;;;1.90;;
70549;SDS011;58101;48.658;2.328;2023-10-19T06:13:28;12.10;;;1.70;;
70549;SDS011;58101;48.658;2.328;2023-10-19T06:18:20;12.32;;;1.95;;
70549;SDS011;58101;48.658;2.328;2023-10-19T06:20:45;13.48;;;1.90;;
70549;SDS011;58101;48.658;2.328;2023-10-19T06:23:12;10.60;;;1.73;;
70549;SDS011;58101;48.658;2.328;2023-10-19T06:25:37;8.75;;;1.52;;
70549;SDS011;58101;48.658;2.328;2023-10-19T06:28:04;11.52;;;2.05;;
70549;SDS011;58101;48.658;2.328;2023-10-19T06:30:30;7.30;;;1.70;;
70549;SDS011;58101;48.658;2.328;2023-10-19T06:32:59;10.63;;;1.80;;
70549;SDS011;58101;48.658;2.328;2023-10-19T06:35:26;10.13;;;1.60;;
70549;SDS011;58101;48.658;2.328;2023-10-19T06:37:53;9.00;;;1.52;;
70549;SDS011;58101;48.658;2.328;2023-10-19T06:40:22;8.60;;;1.40;;
70549;SDS011;58101;48.658;2.328;2023-10-19T06:42:48;6.30;;;1.40;;
70549;SDS011;58101;48.658;2.328;2023-10-19T06:45:15;11.00;;;1.60;;
70549;SDS011;58101;48.658;2.328;2023-10-19T06:47:44;9.48;;;1.60;;
70549;SDS011;58101;48.658;2.328;2023-10-19T06:50:11;9.65;;;1.50;;
70549;SDS011;58101;48.658;2.328;2023-10-19T06:52:40;10.85;;;1.60;;
70549;SDS011;58101;48.658;2.328;2023-10-19T06:55:08;8.52;;;1.50;;
70549;SDS011;58101;48.658;2.328;2023-10-19T06:57:41;9.73;;;1.85;;
70549;SDS011;58101;48.658;2.328;2023-10-19T07:00:10;8.80;;;1.65;;
70549;SDS011;58101;48.658;2.328;2023-10-19T07:03:06;10.18;;;1.30;;
70549;SDS011;58101;48.658;2.328;2023-10-19T07:05:32;9.02;;;1.55;;
70549;SDS011;58101;48.658;2.328;2023-10-19T07:07:58;8.52;;;1.48;;
70549;SDS011;58101;48.658;2.328;2023-10-19T07:10:25;8.32;;;1.50;;
70549;SDS011;58101;48.658;2.328;2023-10-19T07:12:52;6.88;;;1.20;;
70549;SDS011;58101;48.658;2.328;2023-10-19T07:15:21;8.68;;;1.30;;
70549;SDS011;58101;48.658;2.328;2023-10-19T07:17:48;8.55;;;1.33;;
70549;SDS011;58101;48.658;2.328;2023-10-19T07:20:15;8.82;;;1.50;;
70549;SDS011;58101;48.658;2.328;2023-10-19T07:22:59;10.70;;;1.60;;
70549;SDS011;58101;48.658;2.328;2023-10-19T07:25:35;7.25;;;1.33;;
70549;SDS011;58101;48.658;2.328;2023-10-19T07:28:13;8.48;;;1.40;;
70549;SDS011;58101;48.658;2.328;2023-10-19T07:30:40;8.82;;;1.40;;
70549;SDS011;58101;48.658;2.328;2023-10-19T07:33:11;9.32;;;1.50;;
70549;SDS011;58101;48.658;2.328;2023-10-19T07:35:42;10.30;;;1.30;;
70549;SDS011;58101;48.658;2.328;2023-10-19T07:38:11;6.30;;;1.30;;
70549;SDS011;58101;48.658;2.328;2023-10-19T07:40:41;9.57;;;1.30;;
70549;SDS011;58101;48.658;2.328;2023-10-19T07:43:11;7.90;;;1.38;;
70549;SDS011;58101;48.658;2.328;2023-10-19T07:45:36;8.70;;;1.25;;
70549;SDS011;58101;48.658;2.328;2023-10-19T07:48:02;5.22;;;1.08;;
70549;SDS011;58101;48.658;2.328;2023-10-19T07:50:35;9.48;;;1.20;;
70549;SDS011;58101;48.658;2.328;2023-10-19T07:53:04;6.25;;;1.20;;
70549;SDS011;58101;48.658;2.328;2023-10-19T07:55:30;9.73;;;1.20;;
70549;SDS011;58101;48.658;2.328;2023-10-19T07:57:57;8.77;;;1.42;;
70549;SDS011;58101;48.658;2.328;2023-10-19T08:00:25;4.97;;;0.93;;
70549;SDS011;58101;48.658;2.328;2023-10-19T08:02:54;5.88;;;1.00;;
70549;SDS011;58101;48.658;2.328;2023-10-19T08:05:20;5.65;;;1.10;;
70549;SDS011;58101;48.658;2.328;2023-10-19T08:07:46;8.63;;;1.23;;
70549;SDS011;58101;48.658;2.328;2023-10-19T08:10:14;6.78;;;1.40;;
70549;SDS011;58101;48.658;2.328;2023-10-19T08:12:42;6.53;;;1.08;;
70549;SDS011;58101;48.658;2.328;2023-10-19T08:15:10;5.47;;;1.00;;
70549;SDS011;58101;48.658;2.328;2023-10-19T08:17:40;7.32;;;1.25;;
70549;SDS011;58101;48.658;2.328;2023-10-19T08:20:07;8.13;;;1.10;;
70549;SDS011;58101;48.658;2.328;2023-10-19T08:22:37;6.38;;;1.17;;
70549;SDS011;58101;48.658;2.328;2023-10-19T08:25:03;6.85;;;1.25;;
70549;SDS011;58101;48.658;2.328;2023-10-19T08:32:43;5.20;;;1.20;;
70549;SDS011;58101;48.658;2.328;2023-10-19T08:35:13;10.23;;;1.20;;
70549;SDS011;58101;48.658;2.328;2023-10-19T08:37:39;8.27;;;1.10;;
70549;SDS011;58101;48.658;2.328;2023-10-19T08:40:10;6.90;;;1.20;;
70549;SDS011;58101;48.658;2.328;2023-10-19T08:42:46;7.05;;;1.05;;
70549;SDS011;58101;48.658;2.328;2023-10-19T08:45:13;5.22;;;1.10;;
70549;SDS011;58101;48.658;2.328;2023-10-19T08:47:58;6.45;;;1.27;;
70549;SDS011;58101;48.658;2.328;2023-10-19T08:50:35;6.13;;;1.30;;
70549;SDS011;58101;48.658;2.328;2023-10-19T08:53:01;6.50;;;1.27;;
70549;SDS011;58101;48.658;2.328;2023-10-19T08:55:28;6.32;;;1.05;;
70549;SDS011;58101;48.658;2.328;2023-10-19T08:57:55;8.20;;;1.40;;
70549;SDS011;58101;48.658;2.328;2023-10-19T09:00:23;5.47;;;1.10;;
70549;SDS011;58101;48.658;2.328;2023-10-19T09:02:52;6.35;;;1.15;;
70549;SDS011;58101;48.658;2.328;2023-10-19T09:05:19;5.32;;;1.08;;
70549;SDS011;58101;48.658;2.328;2023-10-19T09:07:51;6.18;;;1.20;;
70549;SDS011;58101;48.658;2.328;2023-10-19T09:10:23;5.03;;;1.20;;
70549;SDS011;58101;48.658;2.328;2023-10-19T09:12:59;7.20;;;1.45;;
70549;SDS011;58101;48.658;2.328;2023-10-19T09:15:27;6.10;;;1.30;;
70549;SDS011;58101;48.658;2.328;2023-10-19T09:17:55;8.85;;;2.10;;
70549;SDS011;58101;48.658;2.328;2023-10-19T09:20:21;6.63;;;1.10;;
70549;SDS011;58101;48.658;2.328;2023-10-19T09:22:56;5.07;;;1.00;;
70549;SDS011;58101;48.658;2.328;2023-10-19T09:25:23;5.40;;;1.00;;
70549;SDS011;58101;48.658;2.328;2023-10-19T09:27:49;4.13;;;1.00;;
70549;SDS011;58101;48.658;2.328;2023-10-19T09:30:15;4.85;;;1.05;;
70549;SDS011;58101;48.658;2.328;2023-10-19T09:32:47;5.60;;;1.25;;
70549;SDS011;58101;48.658;2.328;2023-10-19T09:35:16;8.15;;;1.10;;
70549;SDS011;58101;48.658;2.328;2023-10-19T09:37:44;5.72;;;1.10;;
70549;SDS011;58101;48.658;2.328;2023-10-19T09:40:10;4.97;;;1.02;;
70549;SDS011;58101;48.658;2.328;2023-10-19T09:42:40;6.60;;;1.20;;
70549;SDS011;58101;48.658;2.328;2023-10-19T09:45:11;6.47;;;1.38;;
70549;SDS011;58101;48.658;2.328;2023-10-19T09:47:41;6.18;;;1.25;;
70549;SDS011;58101;48.658;2.328;2023-10-19T09:50:09;5.47;;;0.90;;
70549;SDS011;58101;48.658;2.328;2023-10-19T09:52:36;4.10;;;1.00;;
70549;SDS011;58101;48.658;2.328;2023-10-19T10:00:18;6.78;;;1.23;;
70549;SDS011;58101;48.658;2.328;2023-10-19T10:02:50;4.28;;;1.00;;
70549;SDS011;58101;48.658;2.328;2023-10-19T10:10:42;6.28;;;1.00;;
70549;SDS011;58101;48.658;2.328;2023-10-19T10:15:52;7.35;;;1.20;;
70549;SDS011;58101;48.658;2.328;2023-10-19T10:18:25;4.90;;;1.02;;
70549;SDS011;58101;48.658;2.328;2023-10-19T10:21:12;5.80;;;1.10;;
70549;SDS011;58101;48.658;2.328;2023-10-19T10:24:03;3.95;;;0.90;;
70549;SDS011;58101;48.658;2.328;2023-10-19T10:26:30;5.25;;;1.00;;
70549;SDS011;58101;48.658;2.328;2023-10-19T10:31:49;5.90;;;1.23;;
70549;SDS011;58101;48.658;2.328;2023-10-19T10:37:04;6.78;;;1.00;;
70549;SDS011;58101;48.658;2.328;2023-10-19T10:39:34;7.85;;;1.25;;
70549;SDS011;58101;48.658;2.328;2023-10-19T10:42:05;6.15;;;1.30;;
70549;SDS011;58101;48.658;2.328;2023-10-19T10:44:41;4.82;;;1.02;;
70549;SDS011;58101;48.658;2.328;2023-10-19T10:47:20;5.85;;;1.30;;
70549;SDS011;58101;48.658;2.328;2023-10-19T10:49:51;6.88;;;1.27;;
70549;SDS011;58101;48.658;2.328;2023-10-19T10:54:50;6.80;;;1.20;;
70549;SDS011;58101;48.658;2.328;2023-10-19T10:57:15;6.78;;;1.20;;
70549;SDS011;58101;48.658;2.328;2023-10-19T10:59:41;6.05;;;1.13;;
70549;SDS011;58101;48.658;2.328;2023-10-19T11:02:19;6.15;;;1.20;;
70549;SDS011;58101;48.658;2.328;2023-10-19T11:04:46;6.15;;;1.05;;
70549;SDS011;58101;48.658;2.328;2023-10-19T11:07:18;7.28;;;1.23;;
70549;SDS011;58101;48.658;2.328;2023-10-19T11:09:45;5.25;;;1.10;;
70549;SDS011;58101;48.658;2.328;2023-10-19T11:12:12;7.20;;;1.30;;
70549;SDS011;58101;48.658;2.328;2023-10-19T11:14:56;8.88;;;1.33;;
70549;SDS011;58101;48.658;2.328;2023-10-19T11:17:41;7.15;;;1.38;;
70549;SDS011;58101;48.658;2.328;2023-10-19T11:20:07;6.72;;;1.00;;
70549;SDS011;58101;48.658;2.328;2023-10-19T11:22:44;7.00;;;1.35;;
70549;SDS011;58101;48.658;2.328;2023-10-19T11:25:17;6.53;;;1.10;;
70549;SDS011;58101;48.658;2.328;2023-10-19T11:27:44;5.45;;;1.00;;
70549;SDS011;58101;48.658;2.328;2023-10-19T11:30:10;7.55;;;1.38;;
70549;SDS011;58101;48.658;2.328;2023-10-19T11:32:37;7.65;;;1.02;;
70549;SDS011;58101;48.658;2.328;2023-10-19T11:35:05;5.78;;;1.10;;
70549;SDS011;58101;48.658;2.328;2023-10-19T11:37:50;7.05;;;1.20;;
70549;SDS011;58101;48.658;2.328;2023-10-19T11:40:21;6.35;;;1.20;;
70549;SDS011;58101;48.658;2.328;2023-10-19T11:42:48;7.43;;;1.40;;
70549;SDS011;58101;48.658;2.328;2023-10-19T11:45:17;6.88;;;1.23;;
70549;SDS011;58101;48.658;2.328;2023-10-19T11:47:44;6.68;;;1.10;;
70549;SDS011;58101;48.658;2.328;2023-10-19T11:50:13;4.75;;;1.00;;
70549;SDS011;58101;48.658;2.328;2023-10-19T11:52:43;5.50;;;1.10;;
70549;SDS011;58101;48.658;2.328;2023-10-19T11:55:11;7.75;;;1.30;;
70549;SDS011;58101;48.658;2.328;2023-10-19T11:57:38;5.82;;;1.08;;
70549;SDS011;58101;48.658;2.328;2023-10-19T12:00:05;5.38;;;1.00;;
70549;SDS011;58101;48.658;2.328;2023-10-19T12:02:35;5.78;;;0.90;;
70549;SDS011;58101;48.658;2.328;2023-10-19T12:05:02;6.05;;;0.93;;
70549;SDS011;58101;48.658;2.328;2023-10-19T12:07:29;6.00;;;0.98;;
70549;SDS011;58101;48.658;2.328;2023-10-19T12:09:57;5.60;;;1.00;;
70549;SDS011;58101;48.658;2.328;2023-10-19T12:14:48;6.78;;;1.33;;
70549;SDS011;58101;48.658;2.328;2023-10-19T12:17:15;5.55;;;1.00;;
70549;SDS011;58101;48.658;2.328;2023-10-19T12:19:42;6.20;;;1.00;;
70549;SDS011;58101;48.658;2.328;2023-10-19T12:22:08;5.95;;;1.15;;
70549;SDS011;58101;48.658;2.328;2023-10-19T12:24:34;6.55;;;1.25;;
70549;SDS011;58101;48.658;2.328;2023-10-19T12:26:59;6.55;;;1.08;;
70549;SDS011;58101;48.658;2.328;2023-10-19T12:29:25;8.10;;;0.98;;
70549;SDS011;58101;48.658;2.328;2023-10-19T12:31:51;7.97;;;1.15;;
70549;SDS011;58101;48.658;2.328;2023-10-19T12:34:16;8.63;;;1.10;;
70549;SDS011;58101;48.658;2.328;2023-10-19T12:36:42;10.05;;;1.50;;
70549;SDS011;58101;48.658;2.328;2023-10-19T12:39:11;5.88;;;1.13;;
70549;SDS011;58101;48.658;2.328;2023-10-19T12:41:57;6.35;;;1.25;;
70549;SDS011;58101;48.658;2.328;2023-10-19T12:44:22;6.82;;;1.10;;
70549;SDS011;58101;48.658;2.328;2023-10-19T12:46:48;8.10;;;1.10;;
70549;SDS011;58101;48.658;2.328;2023-10-19T12:49:13;7.72;;;1.20;;
70549;SDS011;58101;48.658;2.328;2023-10-19T12:51:41;6.07;;;1.10;;
70549;SDS011;58101;48.658;2.328;2023-10-19T12:54:07;9.63;;;1.40;;
70549;SDS011;58101;48.658;2.328;2023-10-19T12:56:35;6.63;;;1.10;;
70549;SDS011;58101;48.658;2.328;2023-10-19T12:59:01;6.30;;;1.13;;
70549;SDS011;58101;48.658;2.328;2023-10-19T13:01:26;7.00;;;1.23;;
70549;SDS011;58101;48.658;2.328;2023-10-19T13:03:53;6.70;;;1.00;;
70549;SDS011;58101;48.658;2.328;2023-10-19T13:06:18;6.28;;;1.10;;
70549;SDS011;58101;48.658;2.328;2023-10-19T13:08:44;6.95;;;1.10;;
70549;SDS011;58101;48.658;2.328;2023-10-19T13:11:11;5.43;;;1.00;;
70549;SDS011;58101;48.658;2.328;2023-10-19T13:13:39;7.30;;;1.10;;
70549;SDS011;58101;48.658;2.328;2023-10-19T13:16:05;7.95;;;1.00;;
70549;SDS011;58101;48.658;2.328;2023-10-19T13:18:31;5.90;;;1.25;;
70549;SDS011;58101;48.658;2.328;2023-10-19T13:20:59;6.75;;;1.30;;
70549;SDS011;58101;48.658;2.328;2023-10-19T13:23:30;5.88;;;0.90;;
70549;SDS011;58101;48.658;2.328;2023-10-19T13:26:00;7.00;;;1.10;;
70549;SDS011;58101;48.658;2.328;2023-10-19T13:28:32;7.82;;;1.10;;
70549;SDS011;58101;48.658;2.328;2023-10-19T13:30:57;8.82;;;1.13;;
70549;SDS011;58101;48.658;2.328;2023-10-19T13:33:23;5.95;;;1.00;;
70549;SDS011;58101;48.658;2.328;2023-10-19T13:35:53;6.38;;;1.10;;
70549;SDS011;58101;48.658;2.328;2023-10-19T13:38:18;6.03;;;1.00;;
70549;SDS011;58101;48.658;2.328;2023-10-19T13:40:47;6.80;;;0.98;;
70549;SDS011;58101;48.658;2.328;2023-10-19T13:43:15;6.97;;;1.10;;
70549;SDS011;58101;48.658;2.328;2023-10-19T13:45:43;6.30;;;1.30;;
70549;SDS011;58101;48.658;2.328;2023-10-19T13:48:11;6.15;;;1.20;;
70549;SDS011;58101;48.658;2.328;2023-10-19T13:50:44;9.23;;;1.40;;
70549;SDS011;58101;48.658;2.328;2023-10-19T13:53:13;6.65;;;1.00;;
70549;SDS011;58101;48.658;2.328;2023-10-19T13:55:40;5.47;;;1.08;;
70549;SDS011;58101;48.658;2.328;2023-10-19T13:58:06;7.55;;;1.00;;
70549;SDS011;58101;48.658;2.328;2023-10-19T14:00:32;4.63;;;0.88;;
70549;SDS011;58101;48.658;2.328;2023-10-19T14:03:05;6.55;;;1.17;;
70549;SDS011;58101;48.658;2.328;2023-10-19T14:05:35;6.93;;;1.00;;
70549;SDS011;58101;48.658;2.328;2023-10-19T14:08:05;5.28;;;0.98;;
70549;SDS011;58101;48.658;2.328;2023-10-19T14:10:32;5.95;;;1.15;;
70549;SDS011;58101;48.658;2.328;2023-10-19T14:12:58;5.50;;;0.93;;
70549;SDS011;58101;48.658;2.328;2023-10-19T14:15:24;5.15;;;0.88;;
70549;SDS011;58101;48.658;2.328;2023-10-19T14:17:55;5.60;;;0.82;;
70549;SDS011;58101;48.658;2.328;2023-10-19T14:20:23;6.40;;;1.00;;
70549;SDS011;58101;48.658;2.328;2023-10-19T14:25:15;4.20;;;1.10;;
70549;SDS011;58101;48.658;2.328;2023-10-19T14:27:44;5.25;;;1.00;;
70549;SDS011;58101;48.658;2.328;2023-10-19T14:30:13;6.53;;;1.20;;
70549;SDS011;58101;48.658;2.328;2023-10-19T14:32:46;4.72;;;1.15;;
70549;SDS011;58101;48.658;2.328;2023-10-19T14:35:13;4.40;;;1.00;;
70549;SDS011;58101;48.658;2.328;2023-10-19T14:37:41;9.98;;;1.40;;
70549;SDS011;58101;48.658;2.328;2023-10-19T14:40:18;5.50;;;1.20;;
70549;SDS011;58101;48.658;2.328;2023-10-19T14:42:46;5.50;;;1.40;;
70549;SDS011;58101;48.658;2.328;2023-10-19T14:45:14;6.15;;;1.25;;
70549;SDS011;58101;48.658;2.328;2023-10-19T14:47:51;4.88;;;1.00;;
70549;SDS011;58101;48.658;2.328;2023-10-19T14:50:22;6.15;;;1.02;;
70549;SDS011;58101;48.658;2.328;2023-10-19T14:52:49;4.70;;;0.80;;
70549;SDS011;58101;48.658;2.328;2023-10-19T14:55:16;4.60;;;1.00;;
70549;SDS011;58101;48.658;2.328;2023-10-19T14:57:43;4.78;;;0.95;;
70549;SDS011;58101;48.658;2.328;2023-10-19T15:00:10;3.80;;;0.80;;
70549;SDS011;58101;48.658;2.328;2023-10-19T15:02:41;2.53;;;0.80;;
70549;SDS011;58101;48.658;2.328;2023-10-19T15:05:08;4.65;;;0.90;;
70549;SDS011;58101;48.658;2.328;2023-10-19T15:07:38;4.80;;;0.90;;
70549;SDS011;58101;48.658;2.328;2023-10-19T15:10:09;6.13;;;0.82;;
70549;SDS011;58101;48.658;2.328;2023-10-19T15:12:36;6.32;;;0.93;;
70549;SDS011;58101;48.658;2.328;2023-10-19T15:15:05;4.43;;;0.90;;
70549;SDS011;58101;48.658;2.328;2023-10-19T15:17:38;4.45;;;0.82;;
70549;SDS011;58101;48.658;2.328;2023-10-19T15:20:08;4.63;;;0.90;;
70549;SDS011;58101;48.658;2.328;2023-10-19T15:22:36;5.65;;;1.00;;
70549;SDS011;58101;48.658;2.328;2023-10-19T15:25:02;7.55;;;0.90;;
70549;SDS011;58101;48.658;2.328;2023-10-19T15:27:29;3.90;;;0.88;;
70549;SDS011;58101;48.658;2.328;2023-10-19T15:29:55;5.20;;;0.90;;
70549;SDS011;58101;48.658;2.328;2023-10-19T15:32:22;3.63;;;0.80;;
70549;SDS011;58101;48.658;2.328;2023-10-19T15:34:48;4.70;;;1.10;;